sensor_id;sensor_type;location;lat;lon;timestamp;P1;durP1;ratioP1;P2;durP2;ratioP2
22359;SDS011;11347;52.030;4.690;2022-09-09T00:04:04;1.63;;;0.50;;
22359;SDS011;11347;52.030;4.690;2022-09-09T00:06:52;1.50;;;0.50;;
22359;SDS011;11347;52.030;4.690;2022-09-09T00:09:25;4.63;;;0.70;;
22359;SDS011;11347;52.030;4.690;2022-09-09T00:17:24;2.00;;;0.60;;
22359;SDS011;11347;52.030;4.690;2022-09-09T00:22:51;2.90;;;0.50;;
22359;SDS011;11347;52.030;4.690;2022-09-09T00:25:34;2.00;;;0.60;;
22359;SDS011;11347;52.030;4.690;2022-09-09T00:28:13;3.50;;;0.57;;
22359;SDS011;11347;52.030;4.690;2022-09-09T00:30:43;1.53;;;0.80;;
22359;SDS011;11347;52.030;4.690;2022-09-09T00:33:13;1.47;;;0.60;;
22359;SDS011;11347;52.030;4.690;2022-09-09T00:35:45;3.83;;;0.87;;
22359;SDS011;11347;52.030;4.690;2022-09-09T00:38:14;1.33;;;0.60;;
22359;SDS011;11347;52.030;4.690;2022-09-09T00:40:53;3.63;;;0.70;;
22359;SDS011;11347;52.030;4.690;2022-09-09T00:43:36;1.80;;;0.83;;
22359;SDS011;11347;52.030;4.690;2022-09-09T00:51:48;2.27;;;0.70;;
22359;SDS011;11347;52.030;4.690;2022-09-09T00:57:33;3.50;;;0.70;;
22359;SDS011;11347;52.030;4.690;2022-09-09T01:00:16;1.93;;;0.80;;
22359;SDS011;11347;52.030;4.690;2022-09-09T01:02:53;2.37;;;0.70;;
22359;SDS011;11347;52.030;4.690;2022-09-09T01:10:55;2.63;;;0.63;;
22359;SDS011;11347;52.030;4.690;2022-09-09T01:13:27;1.90;;;0.80;;
22359;SDS011;11347;52.030;4.690;2022-09-09T01:15:55;2.27;;;0.60;;
22359;SDS011;11347;52.030;4.690;2022-09-09T01:18:25;2.47;;;0.60;;
22359;SDS011;11347;52.030;4.690;2022-09-09T01:26:42;2.17;;;0.80;;
22359;SDS011;11347;52.030;4.690;2022-09-09T01:29:10;2.67;;;0.80;;
22359;SDS011;11347;52.030;4.690;2022-09-09T01:31:39;5.43;;;0.90;;
22359;SDS011;11347;52.030;4.690;2022-09-09T01:34:10;3.77;;;0.80;;
22359;SDS011;11347;52.030;4.690;2022-09-09T01:36:39;2.30;;;0.87;;
22359;SDS011;11347;52.030;4.690;2022-09-09T01:39:09;2.73;;;0.70;;
22359;SDS011;11347;52.030;4.690;2022-09-09T01:41:36;6.07;;;0.90;;
22359;SDS011;11347;52.030;4.690;2022-09-09T01:44:02;1.93;;;0.77;;
22359;SDS011;11347;52.030;4.690;2022-09-09T01:46:29;3.07;;;0.90;;
22359;SDS011;11347;52.030;4.690;2022-09-09T01:48:55;3.33;;;0.70;;
22359;SDS011;11347;52.030;4.690;2022-09-09T01:51:22;2.87;;;1.00;;
22359;SDS011;11347;52.030;4.690;2022-09-09T01:53:48;3.67;;;0.70;;
22359;SDS011;11347;52.030;4.690;2022-09-09T01:56:17;2.00;;;0.83;;
22359;SDS011;11347;52.030;4.690;2022-09-09T01:59:07;3.37;;;0.73;;
22359;SDS011;11347;52.030;4.690;2022-09-09T02:01:46;1.70;;;0.60;;
22359;SDS011;11347;52.030;4.690;2022-09-09T02:04:18;2.50;;;0.60;;
22359;SDS011;11347;52.030;4.690;2022-09-09T02:07:03;2.00;;;0.60;;
22359;SDS011;11347;52.030;4.690;2022-09-09T02:09:36;4.70;;;0.80;;
22359;SDS011;11347;52.030;4.690;2022-09-09T02:12:11;2.27;;;0.83;;
22359;SDS011;11347;52.030;4.690;2022-09-09T02:14:44;3.77;;;0.60;;
22359;SDS011;11347;52.030;4.690;2022-09-09T02:17:21;2.40;;;0.60;;
22359;SDS011;11347;52.030;4.690;2022-09-09T02:19:55;4.63;;;1.10;;
22359;SDS011;11347;52.030;4.690;2022-09-09T02:22:27;2.40;;;0.70;;
22359;SDS011;11347;52.030;4.690;2022-09-09T02:24:54;2.53;;;0.80;;
22359;SDS011;11347;52.030;4.690;2022-09-09T02:27:24;3.57;;;0.77;;
22359;SDS011;11347;52.030;4.690;2022-09-09T02:29:50;4.20;;;0.93;;
22359;SDS011;11347;52.030;4.690;2022-09-09T02:32:20;4.20;;;0.90;;
22359;SDS011;11347;52.030;4.690;2022-09-09T02:34:49;2.50;;;0.87;;
22359;SDS011;11347;52.030;4.690;2022-09-09T02:37:20;1.93;;;0.70;;
22359;SDS011;11347;52.030;4.690;2022-09-09T02:39:50;1.73;;;0.70;;
22359;SDS011;11347;52.030;4.690;2022-09-09T02:42:16;5.83;;;1.00;;
22359;SDS011;11347;52.030;4.690;2022-09-09T02:44:41;2.60;;;0.70;;
22359;SDS011;11347;52.030;4.690;2022-09-09T02:47:11;2.80;;;0.70;;
22359;SDS011;11347;52.030;4.690;2022-09-09T02:52:30;2.53;;;0.77;;
22359;SDS011;11347;52.030;4.690;2022-09-09T02:55:04;4.67;;;0.80;;
22359;SDS011;11347;52.030;4.690;2022-09-09T02:57:42;3.10;;;0.67;;
22359;SDS011;11347;52.030;4.690;2022-09-09T03:00:12;2.63;;;0.60;;
22359;SDS011;11347;52.030;4.690;2022-09-09T03:02:37;1.90;;;0.60;;
22359;SDS011;11347;52.030;4.690;2022-09-09T03:05:03;2.33;;;0.77;;
22359;SDS011;11347;52.030;4.690;2022-09-09T03:07:30;3.47;;;0.90;;
22359;SDS011;11347;52.030;4.690;2022-09-09T03:09:55;1.83;;;0.70;;
22359;SDS011;11347;52.030;4.690;2022-09-09T03:12:21;2.83;;;0.80;;
22359;SDS011;11347;52.030;4.690;2022-09-09T03:14:47;2.90;;;0.67;;
22359;SDS011;11347;52.030;4.690;2022-09-09T03:17:12;1.97;;;0.70;;
22359;SDS011;11347;52.030;4.690;2022-09-09T03:19:38;3.87;;;0.80;;
22359;SDS011;11347;52.030;4.690;2022-09-09T03:22:05;3.07;;;0.90;;
22359;SDS011;11347;52.030;4.690;2022-09-09T03:24:30;3.00;;;0.93;;
22359;SDS011;11347;52.030;4.690;2022-09-09T03:26:56;2.77;;;0.70;;
22359;SDS011;11347;52.030;4.690;2022-09-09T03:29:22;2.07;;;0.90;;
22359;SDS011;11347;52.030;4.690;2022-09-09T03:31:47;2.53;;;1.07;;
22359;SDS011;11347;52.030;4.690;2022-09-09T03:34:13;3.67;;;0.80;;
22359;SDS011;11347;52.030;4.690;2022-09-09T03:36:39;2.90;;;1.10;;
22359;SDS011;11347;52.030;4.690;2022-09-09T03:39:06;1.53;;;0.90;;
22359;SDS011;11347;52.030;4.690;2022-09-09T03:41:32;2.17;;;0.80;;
22359;SDS011;11347;52.030;4.690;2022-09-09T03:43:57;2.57;;;0.80;;
22359;SDS011;11347;52.030;4.690;2022-09-09T03:46:23;2.67;;;0.83;;
22359;SDS011;11347;52.030;4.690;2022-09-09T03:48:50;3.27;;;1.00;;
22359;SDS011;11347;52.030;4.690;2022-09-09T03:51:17;2.67;;;0.80;;
22359;SDS011;11347;52.030;4.690;2022-09-09T03:53:43;3.07;;;0.90;;
22359;SDS011;11347;52.030;4.690;2022-09-09T03:56:09;2.27;;;0.90;;
22359;SDS011;11347;52.030;4.690;2022-09-09T03:58:35;3.37;;;0.80;;
22359;SDS011;11347;52.030;4.690;2022-09-09T04:03:29;1.70;;;0.80;;
22359;SDS011;11347;52.030;4.690;2022-09-09T04:05:57;3.13;;;0.80;;
22359;SDS011;11347;52.030;4.690;2022-09-09T04:08:23;1.73;;;0.70;;
22359;SDS011;11347;52.030;4.690;2022-09-09T04:10:50;3.20;;;0.90;;
22359;SDS011;11347;52.030;4.690;2022-09-09T04:13:16;2.07;;;0.70;;
22359;SDS011;11347;52.030;4.690;2022-09-09T04:15:53;2.60;;;0.77;;
22359;SDS011;11347;52.030;4.690;2022-09-09T04:18:21;4.63;;;0.70;;
22359;SDS011;11347;52.030;4.690;2022-09-09T04:20:48;4.73;;;1.10;;
22359;SDS011;11347;52.030;4.690;2022-09-09T04:23:15;5.00;;;0.93;;
22359;SDS011;11347;52.030;4.690;2022-09-09T04:25:48;1.77;;;0.70;;
22359;SDS011;11347;52.030;4.690;2022-09-09T04:28:15;3.73;;;0.73;;
22359;SDS011;11347;52.030;4.690;2022-09-09T04:30:41;2.80;;;0.83;;
22359;SDS011;11347;52.030;4.690;2022-09-09T04:33:08;1.73;;;0.70;;
22359;SDS011;11347;52.030;4.690;2022-09-09T04:35:34;2.10;;;0.70;;
22359;SDS011;11347;52.030;4.690;2022-09-09T04:38:01;4.40;;;1.00;;
22359;SDS011;11347;52.030;4.690;2022-09-09T04:40:27;3.83;;;0.90;;
22359;SDS011;11347;52.030;4.690;2022-09-09T04:42:54;3.10;;;0.70;;
22359;SDS011;11347;52.030;4.690;2022-09-09T04:45:20;2.70;;;0.70;;
22359;SDS011;11347;52.030;4.690;2022-09-09T04:47:46;2.90;;;0.73;;
22359;SDS011;11347;52.030;4.690;2022-09-09T04:50:11;2.13;;;0.60;;
22359;SDS011;11347;52.030;4.690;2022-09-09T04:52:37;2.43;;;0.80;;
22359;SDS011;11347;52.030;4.690;2022-09-09T04:55:03;3.30;;;0.80;;
22359;SDS011;11347;52.030;4.690;2022-09-09T04:57:29;3.13;;;0.80;;
22359;SDS011;11347;52.030;4.690;2022-09-09T04:59:56;1.90;;;0.70;;
22359;SDS011;11347;52.030;4.690;2022-09-09T05:02:23;1.83;;;0.60;;
22359;SDS011;11347;52.030;4.690;2022-09-09T05:04:48;2.93;;;0.70;;
22359;SDS011;11347;52.030;4.690;2022-09-09T05:07:14;3.23;;;0.70;;
22359;SDS011;11347;52.030;4.690;2022-09-09T05:09:40;2.10;;;0.60;;
22359;SDS011;11347;52.030;4.690;2022-09-09T05:12:06;2.17;;;0.60;;
22359;SDS011;11347;52.030;4.690;2022-09-09T05:14:31;3.63;;;0.70;;
22359;SDS011;11347;52.030;4.690;2022-09-09T05:16:57;3.23;;;0.80;;
22359;SDS011;11347;52.030;4.690;2022-09-09T05:19:23;5.40;;;0.80;;
22359;SDS011;11347;52.030;4.690;2022-09-09T05:21:48;1.57;;;0.67;;
22359;SDS011;11347;52.030;4.690;2022-09-09T05:24:15;2.50;;;0.70;;
22359;SDS011;11347;52.030;4.690;2022-09-09T05:26:41;3.13;;;0.73;;
22359;SDS011;11347;52.030;4.690;2022-09-09T05:29:08;4.33;;;0.90;;
22359;SDS011;11347;52.030;4.690;2022-09-09T05:31:34;1.43;;;0.80;;
22359;SDS011;11347;52.030;4.690;2022-09-09T05:33:59;1.83;;;0.83;;
22359;SDS011;11347;52.030;4.690;2022-09-09T05:36:25;3.07;;;0.90;;
22359;SDS011;11347;52.030;4.690;2022-09-09T05:38:51;3.33;;;0.80;;
22359;SDS011;11347;52.030;4.690;2022-09-09T05:41:18;3.73;;;0.73;;
22359;SDS011;11347;52.030;4.690;2022-09-09T05:43:45;1.77;;;0.70;;
22359;SDS011;11347;52.030;4.690;2022-09-09T05:46:12;3.00;;;0.73;;
22359;SDS011;11347;52.030;4.690;2022-09-09T05:48:41;3.33;;;0.73;;
22359;SDS011;11347;52.030;4.690;2022-09-09T05:51:08;1.83;;;0.70;;
22359;SDS011;11347;52.030;4.690;2022-09-09T05:53:37;4.30;;;1.10;;
22359;SDS011;11347;52.030;4.690;2022-09-09T05:58:31;4.07;;;0.90;;
22359;SDS011;11347;52.030;4.690;2022-09-09T06:01:00;3.93;;;0.73;;
22359;SDS011;11347;52.030;4.690;2022-09-09T06:03:47;5.00;;;1.00;;
22359;SDS011;11347;52.030;4.690;2022-09-09T06:06:17;2.70;;;1.07;;
22359;SDS011;11347;52.030;4.690;2022-09-09T06:08:48;3.03;;;0.90;;
22359;SDS011;11347;52.030;4.690;2022-09-09T06:11:17;3.17;;;0.80;;
22359;SDS011;11347;52.030;4.690;2022-09-09T06:13:47;5.13;;;0.90;;
22359;SDS011;11347;52.030;4.690;2022-09-09T06:16:17;4.03;;;1.00;;
22359;SDS011;11347;52.030;4.690;2022-09-09T06:18:44;2.33;;;0.80;;
22359;SDS011;11347;52.030;4.690;2022-09-09T06:21:20;4.90;;;0.93;;
22359;SDS011;11347;52.030;4.690;2022-09-09T06:23:47;4.23;;;0.90;;
22359;SDS011;11347;52.030;4.690;2022-09-09T06:26:14;1.63;;;0.70;;
22359;SDS011;11347;52.030;4.690;2022-09-09T06:28:45;3.77;;;0.80;;
22359;SDS011;11347;52.030;4.690;2022-09-09T06:31:12;4.83;;;0.70;;
22359;SDS011;11347;52.030;4.690;2022-09-09T06:33:42;4.40;;;0.90;;
22359;SDS011;11347;52.030;4.690;2022-09-09T06:36:18;3.97;;;1.13;;
22359;SDS011;11347;52.030;4.690;2022-09-09T06:38:45;2.90;;;0.83;;
22359;SDS011;11347;52.030;4.690;2022-09-09T06:41:12;4.83;;;0.83;;
22359;SDS011;11347;52.030;4.690;2022-09-09T06:43:39;6.90;;;1.20;;
22359;SDS011;11347;52.030;4.690;2022-09-09T06:46:05;3.13;;;0.80;;
22359;SDS011;11347;52.030;4.690;2022-09-09T06:48:33;3.40;;;0.90;;
22359;SDS011;11347;52.030;4.690;2022-09-09T06:53:31;4.37;;;0.90;;
22359;SDS011;11347;52.030;4.690;2022-09-09T06:56:42;3.83;;;0.97;;
22359;SDS011;11347;52.030;4.690;2022-09-09T06:58:51;3.17;;;1.10;;
22359;SDS011;11347;52.030;4.690;2022-09-09T07:01:18;3.13;;;0.80;;
22359;SDS011;11347;52.030;4.690;2022-09-09T07:03:46;2.90;;;0.80;;
22359;SDS011;11347;52.030;4.690;2022-09-09T07:06:17;4.70;;;1.43;;
22359;SDS011;11347;52.030;4.690;2022-09-09T07:08:54;3.60;;;0.90;;
22359;SDS011;11347;52.030;4.690;2022-09-09T07:11:23;4.47;;;1.00;;
22359;SDS011;11347;52.030;4.690;2022-09-09T07:13:54;4.33;;;1.00;;
22359;SDS011;11347;52.030;4.690;2022-09-09T07:16:20;4.63;;;0.90;;
22359;SDS011;11347;52.030;4.690;2022-09-09T07:18:50;3.70;;;0.90;;
22359;SDS011;11347;52.030;4.690;2022-09-09T07:21:16;4.43;;;1.10;;
22359;SDS011;11347;52.030;4.690;2022-09-09T07:23:43;4.90;;;1.00;;
22359;SDS011;11347;52.030;4.690;2022-09-09T07:28:36;3.80;;;0.93;;
22359;SDS011;11347;52.030;4.690;2022-09-09T07:31:02;4.20;;;1.13;;
22359;SDS011;11347;52.030;4.690;2022-09-09T07:33:29;4.37;;;1.20;;
22359;SDS011;11347;52.030;4.690;2022-09-09T07:36:09;5.47;;;1.10;;
22359;SDS011;11347;52.030;4.690;2022-09-09T07:38:50;5.90;;;1.00;;
22359;SDS011;11347;52.030;4.690;2022-09-09T07:41:21;3.27;;;1.00;;
22359;SDS011;11347;52.030;4.690;2022-09-09T07:43:48;5.63;;;1.10;;
22359;SDS011;11347;52.030;4.690;2022-09-09T07:46:16;3.47;;;1.00;;
22359;SDS011;11347;52.030;4.690;2022-09-09T07:48:44;5.13;;;1.07;;
22359;SDS011;11347;52.030;4.690;2022-09-09T07:51:14;3.70;;;0.93;;
22359;SDS011;11347;52.030;4.690;2022-09-09T07:53:43;5.20;;;1.27;;
22359;SDS011;11347;52.030;4.690;2022-09-09T07:56:10;3.77;;;1.00;;
22359;SDS011;11347;52.030;4.690;2022-09-09T07:58:37;6.50;;;1.10;;
22359;SDS011;11347;52.030;4.690;2022-09-09T08:01:07;2.90;;;1.07;;
22359;SDS011;11347;52.030;4.690;2022-09-09T08:03:38;7.37;;;1.23;;
22359;SDS011;11347;52.030;4.690;2022-09-09T08:06:05;4.43;;;0.93;;
22359;SDS011;11347;52.030;4.690;2022-09-09T08:08:32;4.60;;;1.13;;
22359;SDS011;11347;52.030;4.690;2022-09-09T08:11:06;3.23;;;1.00;;
22359;SDS011;11347;52.030;4.690;2022-09-09T08:13:37;5.80;;;1.30;;
22359;SDS011;11347;52.030;4.690;2022-09-09T08:16:04;7.00;;;1.20;;
22359;SDS011;11347;52.030;4.690;2022-09-09T08:18:30;5.13;;;1.20;;
22359;SDS011;11347;52.030;4.690;2022-09-09T08:20:56;4.20;;;1.17;;
22359;SDS011;11347;52.030;4.690;2022-09-09T08:23:22;4.30;;;0.97;;
22359;SDS011;11347;52.030;4.690;2022-09-09T08:25:47;1.53;;;0.73;;
22359;SDS011;11347;52.030;4.690;2022-09-09T08:28:13;4.27;;;0.97;;
22359;SDS011;11347;52.030;4.690;2022-09-09T08:30:39;3.03;;;1.00;;
22359;SDS011;11347;52.030;4.690;2022-09-09T08:33:05;6.80;;;1.17;;
22359;SDS011;11347;52.030;4.690;2022-09-09T08:35:30;3.20;;;0.97;;
22359;SDS011;11347;52.030;4.690;2022-09-09T08:37:57;3.97;;;1.13;;
22359;SDS011;11347;52.030;4.690;2022-09-09T08:40:25;4.33;;;1.20;;
22359;SDS011;11347;52.030;4.690;2022-09-09T08:42:54;5.23;;;1.30;;
22359;SDS011;11347;52.030;4.690;2022-09-09T08:45:31;5.67;;;1.40;;
22359;SDS011;11347;52.030;4.690;2022-09-09T08:48:08;4.23;;;1.10;;
22359;SDS011;11347;52.030;4.690;2022-09-09T08:50:41;3.80;;;1.10;;
22359;SDS011;11347;52.030;4.690;2022-09-09T08:53:16;3.43;;;1.00;;
22359;SDS011;11347;52.030;4.690;2022-09-09T09:09:12;5.10;;;1.40;;
22359;SDS011;11347;52.030;4.690;2022-09-09T09:12:07;5.57;;;0.90;;
22359;SDS011;11347;52.030;4.690;2022-09-09T09:14:34;3.37;;;1.00;;
22359;SDS011;11347;52.030;4.690;2022-09-09T09:17:03;3.67;;;1.03;;
22359;SDS011;11347;52.030;4.690;2022-09-09T09:19:38;4.03;;;1.10;;
22359;SDS011;11347;52.030;4.690;2022-09-09T09:22:06;5.67;;;1.20;;
22359;SDS011;11347;52.030;4.690;2022-09-09T09:27:16;4.70;;;1.30;;
22359;SDS011;11347;52.030;4.690;2022-09-09T09:29:56;3.27;;;1.50;;
22359;SDS011;11347;52.030;4.690;2022-09-09T09:32:24;5.10;;;1.10;;
22359;SDS011;11347;52.030;4.690;2022-09-09T09:34:55;5.00;;;1.20;;
22359;SDS011;11347;52.030;4.690;2022-09-09T09:37:26;4.57;;;1.20;;
22359;SDS011;11347;52.030;4.690;2022-09-09T09:39:54;5.30;;;1.20;;
22359;SDS011;11347;52.030;4.690;2022-09-09T09:42:19;2.73;;;0.90;;
22359;SDS011;11347;52.030;4.690;2022-09-09T09:44:45;3.27;;;1.20;;
22359;SDS011;11347;52.030;4.690;2022-09-09T09:47:13;3.47;;;0.90;;
22359;SDS011;11347;52.030;4.690;2022-09-09T09:49:52;5.33;;;1.10;;
22359;SDS011;11347;52.030;4.690;2022-09-09T09:52:23;4.90;;;1.20;;
22359;SDS011;11347;52.030;4.690;2022-09-09T09:54:51;3.53;;;1.00;;
22359;SDS011;11347;52.030;4.690;2022-09-09T09:57:18;4.83;;;1.30;;
22359;SDS011;11347;52.030;4.690;2022-09-09T09:59:59;4.07;;;1.00;;
22359;SDS011;11347;52.030;4.690;2022-09-09T10:02:40;3.90;;;1.30;;
22359;SDS011;11347;52.030;4.690;2022-09-09T10:27:42;3.77;;;1.10;;
22359;SDS011;11347;52.030;4.690;2022-09-09T10:40:43;3.23;;;1.03;;
22359;SDS011;11347;52.030;4.690;2022-09-09T10:56:50;4.43;;;1.00;;
22359;SDS011;11347;52.030;4.690;2022-09-09T10:59:22;2.73;;;0.93;;
22359;SDS011;11347;52.030;4.690;2022-09-09T11:04:30;5.63;;;1.17;;
22359;SDS011;11347;52.030;4.690;2022-09-09T11:07:01;2.50;;;0.83;;
22359;SDS011;11347;52.030;4.690;2022-09-09T11:09:36;4.27;;;1.00;;
22359;SDS011;11347;52.030;4.690;2022-09-09T11:12:07;4.37;;;1.23;;
22359;SDS011;11347;52.030;4.690;2022-09-09T11:14:44;6.30;;;0.90;;
22359;SDS011;11347;52.030;4.690;2022-09-09T11:17:21;4.23;;;1.03;;
22359;SDS011;11347;52.030;4.690;2022-09-09T11:20:11;3.80;;;0.93;;
22359;SDS011;11347;52.030;4.690;2022-09-09T11:22:39;3.53;;;1.07;;
22359;SDS011;11347;52.030;4.690;2022-09-09T11:28:23;3.17;;;0.97;;
22359;SDS011;11347;52.030;4.690;2022-09-09T11:39:24;4.63;;;0.90;;
22359;SDS011;11347;52.030;4.690;2022-09-09T11:42:19;2.07;;;0.90;;
22359;SDS011;11347;52.030;4.690;2022-09-09T11:44:47;2.60;;;0.87;;
22359;SDS011;11347;52.030;4.690;2022-09-09T11:47:26;4.53;;;1.20;;
22359;SDS011;11347;52.030;4.690;2022-09-09T11:50:40;3.57;;;0.80;;
22359;SDS011;11347;52.030;4.690;2022-09-09T11:52:42;4.20;;;0.90;;
22359;SDS011;11347;52.030;4.690;2022-09-09T11:58:01;3.87;;;1.00;;
22359;SDS011;11347;52.030;4.690;2022-09-09T12:00:36;3.83;;;0.80;;
22359;SDS011;11347;52.030;4.690;2022-09-09T12:03:08;4.43;;;1.00;;
22359;SDS011;11347;52.030;4.690;2022-09-09T12:06:25;4.37;;;1.20;;
22359;SDS011;11347;52.030;4.690;2022-09-09T12:09:05;3.80;;;1.03;;
22359;SDS011;11347;52.030;4.690;2022-09-09T12:11:31;3.87;;;0.93;;
22359;SDS011;11347;52.030;4.690;2022-09-09T12:13:58;3.97;;;0.80;;
22359;SDS011;11347;52.030;4.690;2022-09-09T12:19:06;1.63;;;0.80;;
22359;SDS011;11347;52.030;4.690;2022-09-09T12:34:02;2.60;;;0.77;;
22359;SDS011;11347;52.030;4.690;2022-09-09T12:36:35;2.20;;;0.90;;
22359;SDS011;11347;52.030;4.690;2022-09-09T12:39:09;2.93;;;0.90;;
22359;SDS011;11347;52.030;4.690;2022-09-09T12:41:53;2.30;;;0.80;;
22359;SDS011;11347;52.030;4.690;2022-09-09T12:44:23;3.70;;;1.00;;
22359;SDS011;11347;52.030;4.690;2022-09-09T12:46:50;2.47;;;0.90;;
22359;SDS011;11347;52.030;4.690;2022-09-09T12:49:36;2.57;;;0.80;;
22359;SDS011;11347;52.030;4.690;2022-09-09T12:52:06;4.73;;;1.17;;
22359;SDS011;11347;52.030;4.690;2022-09-09T12:54:38;3.83;;;0.97;;
22359;SDS011;11347;52.030;4.690;2022-09-09T12:57:10;3.40;;;1.00;;
22359;SDS011;11347;52.030;4.690;2022-09-09T12:59:39;3.70;;;1.00;;
22359;SDS011;11347;52.030;4.690;2022-09-09T13:02:20;1.90;;;0.63;;
22359;SDS011;11347;52.030;4.690;2022-09-09T13:04:47;5.20;;;1.00;;
22359;SDS011;11347;52.030;4.690;2022-09-09T13:07:15;3.30;;;0.90;;
22359;SDS011;11347;52.030;4.690;2022-09-09T13:09:41;3.77;;;0.90;;
22359;SDS011;11347;52.030;4.690;2022-09-09T13:12:16;3.83;;;0.90;;
22359;SDS011;11347;52.030;4.690;2022-09-09T13:14:45;2.77;;;1.00;;
22359;SDS011;11347;52.030;4.690;2022-09-09T13:17:20;2.23;;;0.70;;
22359;SDS011;11347;52.030;4.690;2022-09-09T13:19:47;2.67;;;0.90;;
22359;SDS011;11347;52.030;4.690;2022-09-09T13:22:20;4.67;;;1.00;;
22359;SDS011;11347;52.030;4.690;2022-09-09T13:24:58;2.13;;;0.80;;
22359;SDS011;11347;52.030;4.690;2022-09-09T13:27:50;3.03;;;0.80;;
22359;SDS011;11347;52.030;4.690;2022-09-09T13:32:47;2.80;;;0.97;;
22359;SDS011;11347;52.030;4.690;2022-09-09T13:35:26;3.03;;;0.80;;
22359;SDS011;11347;52.030;4.690;2022-09-09T13:37:52;2.20;;;0.80;;
22359;SDS011;11347;52.030;4.690;2022-09-09T13:40:19;1.63;;;0.63;;
22359;SDS011;11347;52.030;4.690;2022-09-09T13:42:52;2.03;;;0.73;;
22359;SDS011;11347;52.030;4.690;2022-09-09T13:45:21;1.63;;;0.70;;
22359;SDS011;11347;52.030;4.690;2022-09-09T13:47:51;2.03;;;0.70;;
22359;SDS011;11347;52.030;4.690;2022-09-09T13:52:51;1.73;;;0.70;;
22359;SDS011;11347;52.030;4.690;2022-09-09T13:55:19;3.33;;;0.70;;
22359;SDS011;11347;52.030;4.690;2022-09-09T13:57:53;5.17;;;0.90;;
22359;SDS011;11347;52.030;4.690;2022-09-09T14:00:20;1.70;;;0.60;;
22359;SDS011;11347;52.030;4.690;2022-09-09T14:02:50;3.37;;;0.73;;
22359;SDS011;11347;52.030;4.690;2022-09-09T14:05:16;3.80;;;0.80;;
22359;SDS011;11347;52.030;4.690;2022-09-09T14:07:43;3.77;;;0.87;;
22359;SDS011;11347;52.030;4.690;2022-09-09T14:10:09;1.83;;;0.80;;
22359;SDS011;11347;52.030;4.690;2022-09-09T14:12:36;3.23;;;0.80;;
22359;SDS011;11347;52.030;4.690;2022-09-09T14:15:02;3.40;;;1.00;;
22359;SDS011;11347;52.030;4.690;2022-09-09T14:17:28;1.80;;;0.77;;
22359;SDS011;11347;52.030;4.690;2022-09-09T14:19:55;2.43;;;0.80;;
22359;SDS011;11347;52.030;4.690;2022-09-09T14:22:21;2.30;;;0.50;;
22359;SDS011;11347;52.030;4.690;2022-09-09T14:24:47;2.90;;;0.80;;
22359;SDS011;11347;52.030;4.690;2022-09-09T14:27:12;3.07;;;0.70;;
22359;SDS011;11347;52.030;4.690;2022-09-09T14:29:38;1.63;;;0.60;;
22359;SDS011;11347;52.030;4.690;2022-09-09T14:32:03;3.03;;;0.73;;
22359;SDS011;11347;52.030;4.690;2022-09-09T14:34:29;1.10;;;0.50;;
22359;SDS011;11347;52.030;4.690;2022-09-09T14:36:57;1.80;;;0.57;;
22359;SDS011;11347;52.030;4.690;2022-09-09T14:39:23;1.07;;;0.40;;
22359;SDS011;11347;52.030;4.690;2022-09-09T14:41:48;1.40;;;0.50;;
22359;SDS011;11347;52.030;4.690;2022-09-09T14:44:14;1.33;;;0.50;;
22359;SDS011;11347;52.030;4.690;2022-09-09T14:46:41;1.93;;;0.60;;
22359;SDS011;11347;52.030;4.690;2022-09-09T14:49:07;2.70;;;0.70;;
22359;SDS011;11347;52.030;4.690;2022-09-09T14:51:32;1.23;;;0.50;;
22359;SDS011;11347;52.030;4.690;2022-09-09T14:53:59;2.43;;;0.60;;
22359;SDS011;11347;52.030;4.690;2022-09-09T14:56:26;1.87;;;0.60;;
22359;SDS011;11347;52.030;4.690;2022-09-09T14:58:54;2.20;;;0.60;;
22359;SDS011;11347;52.030;4.690;2022-09-09T15:01:22;1.83;;;0.60;;
22359;SDS011;11347;52.030;4.690;2022-09-09T15:03:49;1.17;;;0.60;;
22359;SDS011;11347;52.030;4.690;2022-09-09T15:06:17;2.60;;;0.80;;
22359;SDS011;11347;52.030;4.690;2022-09-09T15:08:43;2.90;;;0.70;;
22359;SDS011;11347;52.030;4.690;2022-09-09T15:11:10;3.27;;;0.60;;
22359;SDS011;11347;52.030;4.690;2022-09-09T15:13:37;1.70;;;0.60;;
22359;SDS011;11347;52.030;4.690;2022-09-09T15:16:15;2.63;;;0.70;;
22359;SDS011;11347;52.030;4.690;2022-09-09T15:18:42;1.17;;;0.50;;
22359;SDS011;11347;52.030;4.690;2022-09-09T15:21:13;2.93;;;0.70;;
22359;SDS011;11347;52.030;4.690;2022-09-09T15:23:46;2.03;;;0.60;;
22359;SDS011;11347;52.030;4.690;2022-09-09T15:26:12;1.83;;;0.60;;
22359;SDS011;11347;52.030;4.690;2022-09-09T15:28:41;5.73;;;0.73;;
22359;SDS011;11347;52.030;4.690;2022-09-09T15:31:12;1.57;;;0.60;;
22359;SDS011;11347;52.030;4.690;2022-09-09T15:33:51;1.97;;;0.57;;
22359;SDS011;11347;52.030;4.690;2022-09-09T15:36:24;1.43;;;0.40;;
22359;SDS011;11347;52.030;4.690;2022-09-09T15:38:51;2.07;;;0.70;;
22359;SDS011;11347;52.030;4.690;2022-09-09T15:41:18;2.03;;;0.70;;
22359;SDS011;11347;52.030;4.690;2022-09-09T15:43:48;1.17;;;0.50;;
22359;SDS011;11347;52.030;4.690;2022-09-09T15:48:52;2.37;;;0.57;;
22359;SDS011;11347;52.030;4.690;2022-09-09T15:51:22;1.33;;;0.50;;
22359;SDS011;11347;52.030;4.690;2022-09-09T15:53:56;2.60;;;0.70;;
22359;SDS011;11347;52.030;4.690;2022-09-09T15:56:23;1.93;;;0.60;;
22359;SDS011;11347;52.030;4.690;2022-09-09T15:58:50;2.17;;;0.60;;
22359;SDS011;11347;52.030;4.690;2022-09-09T16:01:17;3.27;;;0.80;;
22359;SDS011;11347;52.030;4.690;2022-09-09T16:03:43;2.87;;;0.80;;
22359;SDS011;11347;52.030;4.690;2022-09-09T16:06:15;2.70;;;0.90;;
22359;SDS011;11347;52.030;4.690;2022-09-09T16:08:43;1.77;;;0.63;;
22359;SDS011;11347;52.030;4.690;2022-09-09T16:11:11;2.73;;;0.70;;
22359;SDS011;11347;52.030;4.690;2022-09-09T16:13:42;2.17;;;0.70;;
22359;SDS011;11347;52.030;4.690;2022-09-09T16:16:12;3.17;;;1.20;;
22359;SDS011;11347;52.030;4.690;2022-09-09T16:18:40;3.93;;;0.77;;
22359;SDS011;11347;52.030;4.690;2022-09-09T16:21:08;1.97;;;0.70;;
22359;SDS011;11347;52.030;4.690;2022-09-09T16:23:38;3.23;;;0.70;;
22359;SDS011;11347;52.030;4.690;2022-09-09T16:26:04;1.97;;;0.80;;
22359;SDS011;11347;52.030;4.690;2022-09-09T16:28:30;3.30;;;0.80;;
22359;SDS011;11347;52.030;4.690;2022-09-09T16:30:56;1.37;;;0.67;;
22359;SDS011;11347;52.030;4.690;2022-09-09T16:33:23;2.87;;;0.87;;
22359;SDS011;11347;52.030;4.690;2022-09-09T16:35:50;1.70;;;0.80;;
22359;SDS011;11347;52.030;4.690;2022-09-09T16:38:16;2.67;;;0.80;;
22359;SDS011;11347;52.030;4.690;2022-09-09T16:40:41;2.97;;;0.83;;
22359;SDS011;11347;52.030;4.690;2022-09-09T16:43:07;2.07;;;1.00;;
22359;SDS011;11347;52.030;4.690;2022-09-09T16:45:41;2.60;;;0.80;;
22359;SDS011;11347;52.030;4.690;2022-09-09T16:48:07;3.60;;;1.00;;
22359;SDS011;11347;52.030;4.690;2022-09-09T16:50:32;1.67;;;0.77;;
22359;SDS011;11347;52.030;4.690;2022-09-09T16:52:58;2.10;;;0.97;;
22359;SDS011;11347;52.030;4.690;2022-09-09T16:55:23;2.97;;;1.00;;
22359;SDS011;11347;52.030;4.690;2022-09-09T16:57:51;3.40;;;1.10;;
22359;SDS011;11347;52.030;4.690;2022-09-09T17:00:16;2.73;;;1.00;;
22359;SDS011;11347;52.030;4.690;2022-09-09T17:02:42;3.03;;;1.10;;
22359;SDS011;11347;52.030;4.690;2022-09-09T17:05:10;4.53;;;0.97;;
22359;SDS011;11347;52.030;4.690;2022-09-09T17:07:37;2.73;;;0.93;;
22359;SDS011;11347;52.030;4.690;2022-09-09T17:10:03;3.37;;;1.20;;
22359;SDS011;11347;52.030;4.690;2022-09-09T17:12:30;3.00;;;1.00;;
22359;SDS011;11347;52.030;4.690;2022-09-09T17:14:57;2.37;;;0.90;;
22359;SDS011;11347;52.030;4.690;2022-09-09T17:17:24;3.47;;;1.10;;
22359;SDS011;11347;52.030;4.690;2022-09-09T17:19:50;2.63;;;1.07;;
22359;SDS011;11347;52.030;4.690;2022-09-09T17:22:15;2.70;;;1.20;;
22359;SDS011;11347;52.030;4.690;2022-09-09T17:24:41;2.30;;;0.93;;
22359;SDS011;11347;52.030;4.690;2022-09-09T17:27:07;2.20;;;1.13;;
22359;SDS011;11347;52.030;4.690;2022-09-09T17:29:33;2.63;;;1.23;;